createdAt,value
2018-03-30T00:02:03.514Z,79.99
2018-03-30T00:04:30.973Z,80.17
2018-03-30T00:07:13.279Z,80.57
2018-03-30T00:09:52.563Z,81.07
2018-03-30T00:12:20.055Z,81.17
2018-03-30T00:14:47.531Z,81.14
2018-03-30T00:17:15.012Z,81.15
2018-03-30T00:19:42.469Z,80.54
2018-03-30T00:22:09.973Z,80.46
2018-03-30T00:24:37.470Z,80.92
2018-03-30T00:27:04.959Z,80.43
2018-03-30T00:29:32.449Z,80.39
2018-03-30T00:31:59.919Z,80.04
2018-03-30T00:34:27.960Z,80.24
2018-03-30T00:36:55.466Z,79.86
2018-03-30T00:39:22.980Z,79.38
2018-03-30T00:41:50.466Z,79.71
2018-03-30T00:44:17.980Z,79.88
2018-03-30T00:46:45.456Z,80.09
2018-03-30T00:49:12.925Z,80.24
2018-03-30T00:51:40.524Z,80.38
2018-03-30T00:54:08.055Z,80.43
2018-03-30T00:56:35.551Z,80.66
2018-03-30T00:59:03.647Z,80.63
2018-03-30T01:01:31.216Z,80.51
2018-03-30T01:03:59.708Z,80.40
2018-03-30T01:06:27.229Z,80.22
2018-03-30T01:08:54.722Z,80.38
2018-03-30T01:11:22.193Z,80.56
2018-03-30T01:13:49.788Z,80.71
2018-03-30T01:16:17.652Z,80.68
2018-03-30T01:18:45.596Z,80.44
2018-03-30T01:21:13.076Z,79.99
2018-03-30T01:23:40.560Z,80.15
2018-03-30T01:26:08.104Z,80.17
2018-03-30T01:28:35.631Z,80.36
2018-03-30T01:31:03.110Z,80.56
2018-03-30T01:33:30.585Z,80.83
2018-03-30T01:35:58.096Z,81.02
2018-03-30T01:38:25.645Z,81.10
2018-03-30T01:40:53.109Z,81.06
2018-03-30T01:43:20.609Z,81.28
2018-03-30T01:45:48.392Z,81.35
2018-03-30T01:48:15.834Z,81.83
2018-03-30T01:50:43.308Z,82.27
2018-03-30T01:53:10.780Z,82.69
2018-03-30T01:55:38.287Z,83.26
2018-03-30T01:58:05.768Z,83.59
2018-03-30T02:00:33.222Z,83.76
2018-03-30T02:03:00.698Z,83.98
2018-03-30T02:05:28.497Z,84.09
2018-03-30T02:07:56.090Z,84.24
2018-03-30T02:10:23.566Z,84.47
2018-03-30T02:12:51.079Z,84.59
2018-03-30T02:15:18.567Z,84.88
2018-03-30T02:17:46.061Z,85.15
2018-03-30T02:20:13.575Z,85.41
2018-03-30T02:22:41.040Z,85.72
2018-03-30T02:25:08.511Z,85.98
2018-03-30T02:27:35.996Z,86.18
2018-03-30T02:30:03.524Z,86.41
2018-03-30T02:32:31.017Z,86.67
2018-03-30T02:34:58.485Z,86.81
2018-03-30T02:37:25.933Z,87.13
2018-03-30T02:39:53.395Z,87.23
2018-03-30T02:42:20.933Z,87.10
2018-03-30T02:44:48.388Z,86.96
2018-03-30T02:47:15.916Z,87.00
2018-03-30T02:49:43.416Z,87.09
2018-03-30T02:52:10.964Z,86.49
2018-03-30T02:54:39.055Z,85.18
2018-03-30T02:57:06.527Z,84.02
2018-03-30T02:59:33.998Z,83.12
2018-03-30T03:02:01.502Z,82.81
2018-03-30T03:04:28.979Z,82.88
2018-03-30T03:06:57.069Z,83.15
2018-03-30T03:09:25.229Z,83.04
2018-03-30T03:11:53.567Z,83.00
2018-03-30T03:14:21.053Z,83.23
2018-03-30T03:16:48.508Z,83.34
2018-03-30T03:19:15.968Z,83.61
2018-03-30T03:21:43.498Z,83.72
2018-03-30T03:24:11.048Z,83.76
2018-03-30T03:26:38.532Z,83.56
2018-03-30T03:29:08.621Z,83.34
2018-03-30T03:31:36.119Z,83.22
2018-03-30T03:34:03.580Z,83.18
2018-03-30T03:36:31.044Z,83.06
2018-03-30T03:38:58.542Z,83.01
2018-03-30T03:41:26.055Z,83.13
2018-03-30T03:43:53.529Z,83.71
2018-03-30T03:46:21.011Z,85.03
2018-03-30T03:48:48.501Z,86.04
2018-03-30T03:51:15.979Z,87.05
2018-03-30T03:53:43.448Z,87.87
2018-03-30T03:56:10.973Z,88.37
2018-03-30T03:58:38.468Z,88.77
2018-03-30T04:01:05.923Z,89.04
2018-03-30T04:03:33.391Z,89.43
2018-03-30T04:06:00.887Z,89.89
2018-03-30T04:08:28.363Z,90.27
2018-03-30T04:10:55.882Z,90.63
2018-03-30T04:13:23.375Z,90.97
2018-03-30T04:15:50.863Z,91.32
2018-03-30T04:18:19.182Z,91.53
2018-03-30T04:20:49.935Z,91.70
2018-03-30T04:23:17.415Z,91.82
2018-03-30T04:25:44.905Z,91.90
2018-03-30T04:28:12.364Z,91.96
2018-03-30T04:30:39.834Z,92.03
2018-03-30T04:33:07.322Z,91.90
2018-03-30T04:35:34.791Z,91.66
2018-03-30T04:38:02.308Z,91.48
2018-03-30T04:40:29.839Z,91.22
2018-03-30T04:42:57.294Z,90.94
2018-03-30T04:45:24.751Z,90.66
2018-03-30T04:47:52.212Z,90.38
2018-03-30T04:50:20.467Z,90.11
2018-03-30T04:52:47.946Z,89.81
2018-03-30T04:55:15.509Z,89.36
2018-03-30T04:57:43.040Z,88.97
2018-03-30T05:00:10.512Z,88.73
2018-03-30T05:02:37.985Z,88.50
2018-03-30T05:05:05.471Z,88.11
2018-03-30T05:07:32.952Z,87.87
2018-03-30T05:10:00.457Z,87.81
2018-03-30T05:12:27.939Z,87.83
2018-03-30T05:14:55.644Z,87.85
2018-03-30T05:17:23.137Z,87.87
2018-03-30T05:19:50.621Z,87.89
2018-03-30T05:22:18.075Z,87.81
2018-03-30T05:24:45.589Z,87.20
2018-03-30T05:27:13.071Z,86.30
2018-03-30T05:29:40.535Z,85.23
2018-03-30T05:32:08.027Z,84.12
2018-03-30T05:34:35.562Z,83.25
2018-03-30T05:37:03.012Z,82.41
2018-03-30T05:39:30.526Z,81.96
2018-03-30T05:41:58.030Z,81.43
2018-03-30T05:44:25.517Z,81.29
2018-03-30T05:46:53.012Z,81.13
2018-03-30T05:49:20.512Z,81.09
2018-03-30T05:51:48.024Z,81.75
2018-03-30T05:54:15.575Z,82.21
2018-03-30T05:56:43.095Z,82.43
2018-03-30T05:59:10.601Z,82.12
2018-03-30T06:01:38.128Z,81.76
2018-03-30T06:04:06.535Z,81.44
2018-03-30T06:06:33.996Z,81.17
2018-03-30T06:09:01.494Z,81.12
2018-03-30T06:11:28.988Z,81.26
2018-03-30T06:13:56.483Z,80.46
2018-03-30T06:16:23.977Z,79.86
2018-03-30T06:18:51.440Z,80.11
2018-03-30T06:21:18.910Z,79.59
2018-03-30T06:23:46.452Z,79.51
2018-03-30T06:26:13.915Z,78.97
2018-03-30T06:28:41.384Z,78.05
2018-03-30T06:31:08.925Z,77.55
2018-03-30T06:33:36.388Z,77.19
2018-03-30T06:36:03.935Z,76.61
2018-03-30T06:38:31.416Z,75.99
2018-03-30T06:40:58.876Z,75.75
2018-03-30T06:43:26.396Z,75.33
2018-03-30T06:45:53.861Z,75.17
2018-03-30T06:48:21.330Z,75.20
2018-03-30T06:50:48.801Z,74.56
2018-03-30T06:53:16.275Z,73.24
2018-03-30T06:55:43.759Z,72.08
2018-03-30T06:58:11.286Z,70.07
2018-03-30T07:00:38.764Z,68.49
2018-03-30T07:03:06.253Z,67.04
2018-03-30T07:05:33.737Z,65.61
2018-03-30T07:08:01.214Z,64.88
2018-03-30T07:10:28.716Z,64.61
2018-03-30T07:12:56.247Z,63.67
2018-03-30T07:15:23.714Z,62.11
2018-03-30T07:17:51.241Z,61.59
2018-03-30T07:20:18.721Z,61.34
2018-03-30T07:22:46.230Z,61.24
2018-03-30T07:25:13.727Z,61.13
2018-03-30T07:27:41.952Z,61.03
2018-03-30T07:30:09.469Z,60.97
2018-03-30T07:32:36.954Z,61.05
2018-03-30T07:35:04.438Z,60.65
2018-03-30T07:37:31.924Z,61.18
2018-03-30T07:39:59.399Z,61.32
2018-03-30T07:42:26.865Z,61.54
2018-03-30T07:44:54.362Z,61.11
2018-03-30T07:47:21.847Z,61.24
2018-03-30T07:49:49.337Z,61.30
2018-03-30T07:52:16.812Z,62.08
2018-03-30T07:54:44.293Z,63.19
2018-03-30T07:57:11.791Z,63.78
2018-03-30T07:59:39.249Z,63.97
2018-03-30T08:02:06.719Z,63.72
2018-03-30T08:04:34.184Z,63.58
2018-03-30T08:07:01.652Z,62.67
2018-03-30T08:09:29.104Z,62.58
2018-03-30T08:11:56.622Z,63.03
2018-03-30T08:14:24.102Z,62.96
2018-03-30T08:16:51.641Z,62.45
2018-03-30T08:19:19.126Z,61.63
2018-03-30T08:21:46.603Z,61.49
2018-03-30T08:24:14.122Z,61.09
2018-03-30T08:26:41.672Z,60.68
2018-03-30T08:29:09.145Z,60.46
2018-03-30T08:31:36.652Z,60.62
2018-03-30T08:34:04.114Z,60.63
2018-03-30T08:36:31.598Z,60.57
2018-03-30T08:38:59.087Z,60.43
2018-03-30T08:41:26.573Z,60.31
2018-03-30T08:43:54.037Z,60.86
2018-03-30T08:46:21.509Z,60.60
2018-03-30T08:48:49.061Z,61.03
2018-03-30T08:51:16.516Z,61.21
2018-03-30T08:53:44.012Z,61.13
2018-03-30T08:56:11.491Z,61.89
2018-03-30T08:58:38.968Z,61.82
2018-03-30T09:01:06.436Z,61.75
2018-03-30T09:03:33.904Z,62.42
2018-03-30T09:06:01.404Z,62.17
2018-03-30T09:08:28.887Z,62.02
2018-03-30T09:10:56.408Z,60.40
2018-03-30T09:13:23.879Z,60.31
2018-03-30T09:15:51.340Z,59.99
2018-03-30T09:18:18.824Z,58.69
2018-03-30T09:20:46.364Z,57.23
2018-03-30T09:23:13.869Z,56.77
2018-03-30T09:25:41.381Z,56.81
2018-03-30T09:28:09.552Z,57.57
2018-03-30T09:30:37.032Z,58.13
2018-03-30T09:33:04.503Z,58.87
2018-03-30T09:35:31.977Z,59.75
2018-03-30T09:37:59.448Z,60.83
2018-03-30T09:40:26.934Z,60.40
2018-03-30T09:42:54.398Z,58.94
2018-03-30T09:45:21.922Z,57.51
2018-03-30T09:47:49.444Z,57.15
2018-03-30T09:50:16.944Z,56.68
2018-03-30T09:52:44.488Z,56.58
2018-03-30T09:55:11.962Z,57.59
2018-03-30T09:57:39.501Z,58.20
2018-03-30T10:00:07.018Z,57.85
2018-03-30T10:02:34.492Z,57.62
2018-03-30T10:05:01.978Z,56.44
2018-03-30T10:07:29.479Z,55.91
2018-03-30T10:09:56.978Z,55.08
2018-03-30T10:12:24.607Z,53.82
2018-03-30T10:14:52.090Z,52.97
2018-03-30T10:17:19.656Z,53.01
2018-03-30T10:19:53.020Z,53.04
2018-03-30T10:22:20.517Z,53.81
2018-03-30T10:24:48.011Z,53.68
2018-03-30T10:27:15.575Z,53.15
2018-03-30T10:29:43.096Z,53.15
2018-03-30T10:32:10.560Z,53.94
2018-03-30T10:34:38.046Z,54.36
2018-03-30T10:37:05.507Z,54.60
2018-03-30T10:39:32.975Z,54.99
2018-03-30T10:42:00.471Z,55.79
2018-03-30T10:44:28.005Z,56.22
2018-03-30T10:52:44.808Z,57.60
2018-03-30T10:55:12.276Z,58.46
2018-03-30T10:57:39.772Z,58.95
2018-03-30T11:00:07.271Z,59.40
2018-03-30T11:02:34.782Z,59.54
2018-03-30T11:05:02.272Z,59.12
2018-03-30T11:07:29.760Z,59.79
2018-03-30T11:09:57.227Z,60.18
2018-03-30T11:12:24.713Z,59.99
2018-03-30T11:14:52.209Z,60.25
2018-03-30T11:17:19.688Z,60.06
2018-03-30T11:19:47.201Z,58.96
2018-03-30T11:22:14.745Z,57.48
2018-03-30T11:24:42.284Z,57.42
2018-03-30T11:27:09.719Z,57.44
2018-03-30T11:29:37.219Z,57.96
2018-03-30T11:32:04.686Z,58.34
2018-03-30T11:34:32.172Z,58.77
2018-03-30T11:36:59.700Z,58.21
2018-03-30T11:39:27.192Z,58.00
2018-03-30T11:41:54.689Z,57.21
2018-03-30T11:44:22.178Z,55.89
2018-03-30T11:46:49.756Z,55.35
2018-03-30T11:49:17.336Z,53.85
2018-03-30T11:51:44.852Z,53.43
2018-03-30T12:04:03.934Z,53.01
2018-03-30T12:06:31.418Z,51.74
2018-03-30T12:08:58.909Z,51.74
2018-03-30T12:11:26.389Z,51.77
2018-03-30T12:13:53.915Z,52.36
2018-03-30T12:16:22.442Z,53.42
2018-03-30T12:18:49.934Z,53.59
2018-03-30T12:21:17.453Z,52.66
2018-03-30T12:23:44.961Z,53.51
2018-03-30T12:26:12.431Z,53.77
2018-03-30T12:28:39.964Z,54.58
2018-03-30T12:31:07.493Z,55.15
2018-03-30T12:33:34.975Z,55.98
2018-03-30T12:36:02.500Z,56.21
2018-03-30T12:38:30.134Z,56.67
2018-03-30T12:40:57.675Z,56.19
2018-03-30T12:43:26.413Z,55.54
2018-03-30T12:45:54.463Z,55.54
2018-03-30T12:48:24.053Z,56.05
2018-03-30T12:50:51.609Z,55.81
2018-03-30T12:53:19.777Z,55.88
2018-03-30T12:55:48.080Z,56.51
2018-03-30T12:58:15.790Z,57.15
2018-03-30T13:00:43.304Z,57.19
2018-03-30T13:03:10.810Z,55.58
2018-03-30T13:05:38.281Z,54.27
2018-03-30T13:08:05.799Z,53.89
2018-03-30T13:10:33.283Z,55.08
2018-03-30T13:13:00.756Z,56.37
2018-03-30T13:15:28.505Z,56.23
2018-03-30T13:17:56.004Z,55.16
2018-03-30T13:20:23.517Z,55.16
2018-03-30T13:22:51.018Z,55.13
2018-03-30T13:25:18.482Z,52.47
2018-03-30T13:27:46.116Z,49.95
2018-03-30T13:30:13.584Z,48.15
2018-03-30T13:32:41.066Z,47.83
2018-03-30T13:35:08.543Z,48.06
2018-03-30T13:37:36.016Z,48.49
2018-03-30T13:40:03.531Z,47.76
2018-03-30T13:42:31.040Z,48.75
2018-03-30T13:44:59.139Z,48.88
2018-03-30T13:47:26.736Z,49.28
2018-03-30T13:49:54.204Z,49.82
2018-03-30T13:52:23.668Z,50.08
2018-03-30T13:54:51.908Z,51.28
2018-03-30T13:57:20.237Z,51.95
2018-03-30T13:59:52.352Z,51.20
2018-03-30T14:05:23.029Z,51.77
2018-03-30T14:07:53.433Z,52.63
2018-03-30T14:10:26.328Z,53.21
2018-03-30T14:12:53.929Z,53.96
2018-03-30T14:15:24.446Z,54.05
2018-03-30T14:17:52.851Z,55.36
2018-03-30T14:20:28.812Z,55.10
2018-03-30T14:22:56.344Z,55.29
2018-03-30T14:25:25.615Z,52.89
2018-03-30T14:28:00.903Z,49.70
2018-03-30T14:30:37.920Z,45.48
2018-03-30T14:33:08.081Z,43.11
2018-03-30T14:38:38.869Z,39.63
2018-03-30T14:41:06.356Z,39.26
2018-03-30T14:43:36.687Z,39.00
2018-03-30T14:46:04.198Z,37.78
2018-03-30T14:48:31.685Z,37.14
2018-03-30T14:51:02.020Z,38.40
2018-03-30T14:53:39.279Z,38.70
2018-03-30T14:56:11.764Z,39.08
2018-03-30T15:02:04.755Z,37.67
2018-03-30T15:04:46.850Z,35.22
2018-03-30T15:07:21.256Z,35.09
2018-03-30T15:13:15.376Z,36.02
2018-03-30T15:16:01.396Z,37.61
2018-03-30T15:18:31.699Z,40.25
2018-03-30T15:21:02.718Z,42.64
2018-03-30T15:23:30.852Z,43.66
2018-03-30T15:29:04.883Z,42.45
2018-03-30T15:31:38.066Z,43.37
2018-03-30T15:34:15.369Z,43.23
2018-03-30T15:36:49.722Z,43.23
2018-03-30T15:39:17.220Z,44.48
2018-03-30T15:41:45.611Z,45.17
2018-03-30T15:44:13.136Z,45.36
2018-03-30T15:46:43.432Z,46.50
2018-03-30T15:49:10.932Z,46.45
2018-03-30T15:54:38.379Z,46.91
2018-03-30T15:57:05.932Z,48.18
2018-03-30T15:59:33.428Z,50.00
2018-03-30T16:02:00.892Z,52.28
2018-03-30T16:04:28.410Z,53.28
2018-03-30T16:06:55.896Z,53.91
2018-03-30T16:09:25.955Z,54.75
2018-03-30T16:11:55.232Z,56.12
2018-03-30T16:14:22.751Z,56.84
2018-03-30T16:16:50.236Z,58.14
2018-03-30T16:19:17.168Z,59.17
2018-03-30T16:21:44.098Z,60.36
2018-03-30T16:24:11.039Z,61.02
2018-03-30T16:26:38.003Z,61.47
2018-03-30T16:29:04.932Z,62.27
2018-03-30T16:31:31.876Z,62.81
2018-03-30T16:33:58.826Z,63.27
2018-03-30T16:36:25.765Z,63.74
2018-03-30T16:38:52.707Z,64.69
2018-03-30T16:41:19.627Z,65.55
2018-03-30T16:43:46.560Z,65.45
2018-03-30T16:46:13.504Z,65.65
2018-03-30T16:48:40.448Z,66.02
2018-03-30T16:51:07.467Z,66.81
2018-03-30T16:53:34.421Z,67.47
2018-03-30T16:56:01.408Z,67.87
2018-03-30T16:58:28.369Z,68.28
2018-03-30T17:00:55.342Z,68.62
2018-03-30T17:03:22.278Z,69.43
2018-03-30T17:05:49.232Z,69.84
2018-03-30T17:08:16.176Z,70.16
2018-03-30T17:10:43.128Z,70.63
2018-03-30T17:13:10.066Z,70.95
2018-03-30T17:15:37.023Z,71.42
2018-03-30T17:18:03.966Z,71.91
2018-03-30T17:20:30.917Z,72.46
2018-03-30T17:22:57.864Z,72.68
2018-03-30T17:25:24.816Z,73.00
2018-03-30T17:27:51.807Z,72.94
2018-03-30T17:30:18.794Z,73.29
2018-03-30T17:32:45.728Z,73.50
2018-03-30T17:35:12.737Z,73.91
2018-03-30T17:37:39.685Z,73.98
2018-03-30T17:40:06.632Z,74.50
2018-03-30T17:42:33.624Z,74.88
2018-03-30T17:45:00.579Z,75.09
2018-03-30T17:47:27.512Z,75.16
2018-03-30T17:49:54.484Z,75.54
2018-03-30T17:52:21.451Z,75.92
2018-03-30T17:54:48.404Z,76.35
2018-03-30T17:57:15.354Z,76.26
2018-03-30T17:59:43.162Z,76.61
2018-03-30T18:02:10.139Z,76.55
2018-03-30T18:04:37.087Z,76.70
2018-03-30T18:07:04.038Z,76.97
2018-03-30T18:09:31.035Z,77.11
2018-03-30T18:11:58.020Z,77.27
2018-03-30T18:14:24.981Z,77.39
2018-03-30T18:16:51.951Z,77.39
2018-03-30T18:19:18.895Z,77.59
2018-03-30T18:21:45.836Z,77.75
2018-03-30T18:24:12.816Z,77.92
2018-03-30T18:26:39.779Z,77.86
2018-03-30T18:29:06.835Z,77.56
2018-03-30T18:31:33.787Z,77.51
2018-03-30T18:34:04.213Z,77.67
2018-03-30T18:36:31.180Z,77.75
2018-03-30T18:38:58.193Z,77.75
2018-03-30T18:41:25.178Z,77.68
2018-03-30T18:43:52.136Z,77.71
2018-03-30T18:46:19.107Z,77.75
2018-03-30T18:48:46.065Z,77.98
2018-03-30T18:51:13.009Z,78.28
2018-03-30T18:53:39.982Z,78.23
2018-03-30T18:56:06.932Z,78.35
2018-03-30T18:58:33.886Z,78.37
2018-03-30T19:01:00.921Z,78.61
2018-03-30T19:03:27.860Z,78.61
2018-03-30T19:05:54.837Z,78.68
2018-03-30T19:08:21.822Z,78.64
2018-03-30T19:10:48.769Z,78.24
2018-03-30T19:13:15.740Z,78.11
2018-03-30T19:15:42.702Z,78.01
2018-03-30T19:18:09.654Z,78.06
2018-03-30T19:20:36.593Z,78.20
2018-03-30T19:23:03.578Z,78.27
2018-03-30T19:25:30.516Z,78.37
2018-03-30T19:27:57.598Z,78.26
2018-03-30T19:30:24.540Z,78.20
2018-03-30T19:32:51.479Z,78.34
2018-03-30T19:35:18.449Z,78.33
2018-03-30T19:40:17.544Z,78.25
2018-03-30T19:42:44.528Z,78.41
2018-03-30T19:45:11.476Z,78.54
2018-03-30T19:47:38.414Z,78.84
2018-03-30T19:50:05.362Z,78.85
2018-03-30T19:52:32.328Z,78.88
2018-03-30T19:54:59.291Z,78.84
2018-03-30T19:57:26.260Z,79.25
2018-03-30T19:59:53.221Z,79.64
2018-03-30T20:02:20.191Z,79.50
2018-03-30T20:04:47.144Z,79.50
2018-03-30T20:07:14.125Z,79.33
2018-03-30T20:09:41.073Z,79.44
2018-03-30T20:12:08.037Z,79.25
2018-03-30T20:14:34.984Z,79.11
2018-03-30T20:17:01.960Z,78.97
2018-03-30T20:19:28.927Z,79.15
2018-03-30T20:21:55.893Z,79.21
2018-03-30T20:24:22.824Z,79.40
2018-03-30T20:26:49.791Z,79.28
2018-03-30T20:29:16.748Z,79.39
2018-03-30T20:31:43.736Z,79.80
2018-03-30T20:34:10.684Z,79.87
2018-03-30T20:36:37.634Z,80.10
2018-03-30T20:39:04.579Z,79.91
2018-03-30T20:41:31.547Z,80.19
2018-03-30T20:43:58.500Z,80.69
2018-03-30T20:46:25.487Z,81.09
2018-03-30T20:48:52.425Z,81.25
2018-03-30T20:51:19.404Z,81.57
2018-03-30T20:53:46.352Z,81.60
2018-03-30T20:56:13.312Z,81.55
2018-03-30T20:58:40.304Z,81.73
2018-03-30T21:01:07.280Z,81.88
2018-03-30T21:03:34.355Z,82.06
2018-03-30T21:06:01.296Z,82.33
2018-03-30T21:08:28.266Z,82.73
2018-03-30T21:10:55.220Z,82.68
2018-03-30T21:13:22.157Z,82.93
2018-03-30T21:15:49.115Z,83.18
2018-03-30T21:18:16.057Z,83.64
2018-03-30T21:20:43.004Z,83.47
2018-03-30T21:23:10.133Z,83.47
2018-03-30T21:25:37.067Z,83.78
2018-03-30T21:28:04.090Z,83.63
2018-03-30T21:30:31.102Z,83.58
2018-03-30T21:32:58.099Z,83.72
2018-03-30T21:35:25.045Z,83.81
2018-03-30T21:37:51.990Z,83.82
2018-03-30T21:40:18.912Z,83.65
2018-03-30T21:42:45.892Z,83.65
2018-03-30T21:45:12.841Z,83.46
2018-03-30T21:47:39.794Z,83.67
2018-03-30T21:50:06.754Z,83.29
2018-03-30T21:52:33.713Z,83.12
2018-03-30T21:55:00.742Z,83.16
2018-03-30T21:57:27.708Z,83.17
2018-03-30T21:59:54.632Z,83.30
2018-03-30T22:02:21.594Z,83.55
2018-03-30T22:04:48.545Z,83.70
2018-03-30T22:07:15.513Z,83.65
2018-03-30T22:09:42.446Z,83.50
2018-03-30T22:12:09.437Z,83.05
2018-03-30T22:14:36.410Z,83.08
2018-03-30T22:17:03.393Z,82.62
2018-03-30T22:19:30.349Z,82.55
2018-03-30T22:21:57.380Z,82.65
2018-03-30T22:24:24.395Z,82.65
2018-03-30T22:26:51.334Z,82.41
2018-03-30T22:29:18.288Z,82.15
2018-03-30T22:31:45.223Z,82.33
2018-03-30T22:34:12.174Z,82.45
2018-03-30T22:36:39.146Z,82.48
2018-03-30T22:39:06.112Z,82.39
2018-03-30T22:41:33.068Z,82.43
2018-03-30T22:44:00.017Z,82.12
2018-03-30T22:46:26.965Z,82.04
2018-03-30T22:48:53.949Z,81.97
2018-03-30T22:51:20.912Z,82.01
2018-03-30T22:53:47.896Z,81.90
2018-03-30T22:56:14.832Z,81.90
2018-03-30T22:58:41.776Z,82.00
2018-03-30T23:01:08.713Z,82.34
2018-03-30T23:03:35.725Z,82.86
2018-03-30T23:06:02.676Z,83.16
2018-03-30T23:08:29.666Z,83.54
2018-03-30T23:10:56.625Z,83.76
2018-03-30T23:13:23.567Z,83.91
2018-03-30T23:15:50.527Z,83.99
2018-03-30T23:18:17.472Z,84.16
2018-03-30T23:20:44.411Z,84.32
2018-03-30T23:23:11.364Z,84.28
2018-03-30T23:25:38.335Z,84.08
2018-03-30T23:28:05.317Z,83.88
2018-03-30T23:30:32.351Z,83.38
2018-03-30T23:32:59.322Z,82.31
2018-03-30T23:35:26.258Z,81.59
2018-03-30T23:37:53.205Z,80.45
2018-03-30T23:40:20.162Z,79.17
2018-03-30T23:42:47.102Z,78.47
2018-03-30T23:45:14.039Z,77.48
2018-03-30T23:47:41.004Z,76.96
2018-03-30T23:50:07.963Z,75.99
2018-03-30T23:52:34.896Z,75.54
2018-03-30T23:55:01.861Z,75.55
2018-03-30T23:57:28.873Z,75.72
2018-03-30T23:59:55.824Z,75.63
